Time;durP1;ratioP1;P1;durP2;ratioP2;P2;SDS_P1;SDS_P2;PMS_P1;PMS_P2;Temp;Humidity;BMP_temperature;BMP_pressure;BME280_temperature;BME280_humidity;BME280_pressure;Samples;Min_cycle;Max_cycle;Signal;HPM_P1;HPM_P2
2021/06/12 00:01:09;;;;;;;13.10;11.80;;;;;;;;;;5093589;28;20442;-56
2021/06/12 00:03:36;;;;;;;12.77;11.40;;;;;;;;;;5093175;28;20445;-56
2021/06/12 00:06:05;;;;;;;12.80;11.60;;;;;;;;;;5093169;28;20457;-56
2021/06/12 00:08:32;;;;;;;13.20;11.63;;;;;;;;;;5093430;28;20895;-55
2021/06/12 00:11:00;;;;;;;14.00;12.50;;;;;;;;;;5093424;28;20443;-55
2021/06/12 00:13:27;;;;;;;14.20;12.73;;;;;;;;;;5093158;28;21037;-56
2021/06/12 00:15:54;;;;;;;12.90;11.30;;;;;;;;;;5093123;28;20447;-54
2021/06/12 00:18:21;;;;;;;13.57;12.20;;;;;;;;;;5093267;28;20519;-56
2021/06/12 00:20:48;;;;;;;13.33;11.57;;;;;;;;;;5093370;28;20933;-56
2021/06/12 00:23:17;;;;;;;11.83;10.70;;;;;;;;;;5094492;28;20867;-55
2021/06/12 00:25:44;;;;;;;14.00;11.00;;;;;;;;;;5097620;28;20510;-56
2021/06/12 00:28:10;;;;;;;13.77;11.07;;;;;;;;;;5097071;28;20812;-56
2021/06/12 00:30:37;;;;;;;12.93;11.67;;;;;;;;;;5097506;28;20941;-55
2021/06/12 00:33:04;;;;;;;11.97;10.80;;;;;;;;;;5097080;28;20449;-55
2021/06/12 00:35:32;;;;;;;12.10;10.90;;;;;;;;;;5097500;28;20499;-55
2021/06/12 00:37:59;;;;;;;13.50;11.50;;;;;;;;;;5097402;28;20466;-56
2021/06/12 00:40:27;;;;;;;10.57;9.57;;;;;;;;;;5097368;28;20442;-54
2021/06/12 00:42:54;;;;;;;11.97;10.77;;;;;;;;;;5097232;28;20457;-55
2021/06/12 00:45:22;;;;;;;10.33;9.43;;;;;;;;;;5096804;28;20438;-56
2021/06/12 00:47:50;;;;;;;10.80;9.80;;;;;;;;;;5096777;28;20466;-56
2021/06/12 00:50:18;;;;;;;11.80;9.63;;;;;;;;;;5096774;28;20477;-56
2021/06/12 00:52:45;;;;;;;10.13;8.90;;;;;;;;;;5096968;28;20446;-56
2021/06/12 00:55:14;;;;;;;10.90;9.57;;;;;;;;;;5096682;28;20933;-56
2021/06/12 00:57:43;;;;;;;11.50;9.23;;;;;;;;;;5096626;28;20482;-56
2021/06/12 01:00:11;;;;;;;10.53;9.30;;;;;;;;;;5096782;28;20442;-56
2021/06/12 01:02:38;;;;;;;10.83;9.60;;;;;;;;;;5096424;28;20816;-56
2021/06/12 01:05:06;;;;;;;9.83;8.83;;;;;;;;;;5096705;28;20438;-56
2021/06/12 01:07:33;;;;;;;10.83;9.30;;;;;;;;;;5096278;28;20839;-57
2021/06/12 01:10:00;;;;;;;11.30;10.30;;;;;;;;;;5096488;28;20481;-56
2021/06/12 01:12:29;;;;;;;11.53;9.70;;;;;;;;;;5096581;28;20450;-53
2021/06/12 01:15:04;;;;;;;10.70;9.80;;;;;;;;;;5096667;28;20441;-54
2021/06/12 01:17:34;;;;;;;11.80;9.77;;;;;;;;;;5096516;28;20552;-56
2021/06/12 01:20:09;;;;;;;9.83;8.60;;;;;;;;;;5096458;28;20807;-56
2021/06/12 01:22:39;;;;;;;11.63;10.43;;;;;;;;;;5096541;28;20495;-56
2021/06/12 01:25:07;;;;;;;12.77;9.87;;;;;;;;;;5096388;28;20483;-56
2021/06/12 01:27:46;;;;;;;11.43;10.40;;;;;;;;;;5096285;28;20458;-56
2021/06/12 01:30:17;;;;;;;11.47;10.37;;;;;;;;;;5095916;28;20473;-56
2021/06/12 01:32:51;;;;;;;11.53;10.37;;;;;;;;;;5096355;28;20431;-56
2021/06/12 01:35:24;;;;;;;12.47;11.17;;;;;;;;;;5097879;28;20438;-58
2021/06/12 01:37:51;;;;;;;10.73;9.77;;;;;;;;;;5096321;28;20477;-58
2021/06/12 01:40:21;;;;;;;12.57;10.53;;;;;;;;;;5096126;28;20450;-58
2021/06/12 01:42:48;;;;;;;12.00;10.00;;;;;;;;;;5096103;28;20453;-57
2021/06/12 01:45:15;;;;;;;12.00;10.90;;;;;;;;;;5095938;28;20811;-58
2021/06/12 01:47:44;;;;;;;10.10;9.20;;;;;;;;;;5095961;28;20463;-58
2021/06/12 01:50:12;;;;;;;12.03;9.80;;;;;;;;;;5095853;28;20474;-57
2021/06/12 01:52:39;;;;;;;10.90;9.80;;;;;;;;;;5095831;28;20442;-58
2021/06/12 01:55:07;;;;;;;11.23;10.10;;;;;;;;;;5095507;28;20451;-57
2021/06/12 01:57:35;;;;;;;12.03;10.77;;;;;;;;;;5095350;28;20470;-58
2021/06/12 02:00:02;;;;;;;11.10;9.97;;;;;;;;;;5095766;28;20446;-58
2021/06/12 02:02:29;;;;;;;11.63;10.60;;;;;;;;;;5095311;28;20439;-58
2021/06/12 02:04:57;;;;;;;11.63;10.63;;;;;;;;;;5095636;28;20446;-58
2021/06/12 02:07:25;;;;;;;12.50;11.30;;;;;;;;;;5095460;28;20945;-57
2021/06/12 02:09:52;;;;;;;12.83;11.53;;;;;;;;;;5095161;28;20481;-58
2021/06/12 02:12:19;;;;;;;13.00;11.70;;;;;;;;;;5095237;28;20862;-58
2021/06/12 02:14:47;;;;;;;13.70;12.40;;;;;;;;;;5095184;28;20530;-58
2021/06/12 02:17:14;;;;;;;12.67;11.50;;;;;;;;;;5095154;28;20906;-58
2021/06/12 02:19:41;;;;;;;11.70;10.60;;;;;;;;;;5095420;28;20579;-57
2021/06/12 02:22:09;;;;;;;14.17;12.03;;;;;;;;;;5095216;28;20473;-58
2021/06/12 02:24:37;;;;;;;13.27;12.00;;;;;;;;;;5094966;28;20442;-57
2021/06/12 02:27:04;;;;;;;13.50;11.83;;;;;;;;;;5095104;28;20874;-58
2021/06/12 02:29:31;;;;;;;13.57;12.17;;;;;;;;;;5094966;28;20474;-58
2021/06/12 02:32:02;;;;;;;13.10;11.90;;;;;;;;;;5095142;28;20438;-57
2021/06/12 02:34:29;;;;;;;14.30;12.90;;;;;;;;;;5094802;28;20921;-58
2021/06/12 02:36:56;;;;;;;14.90;11.73;;;;;;;;;;5095029;28;20462;-57
2021/06/12 02:39:24;;;;;;;14.90;13.37;;;;;;;;;;5094782;28;20450;-58
2021/06/12 02:41:51;;;;;;;13.87;12.47;;;;;;;;;;5094636;28;20442;-58
2021/06/12 02:44:18;;;;;;;15.13;13.73;;;;;;;;;;5094495;28;20450;-58
2021/06/12 02:46:45;;;;;;;15.23;13.77;;;;;;;;;;5093455;28;20930;-58
2021/06/12 02:49:13;;;;;;;17.23;14.50;;;;;;;;;;5094369;28;20535;-57
2021/06/12 02:51:41;;;;;;;16.20;14.50;;;;;;;;;;5094832;28;20445;-57
2021/06/12 02:54:08;;;;;;;17.60;15.90;;;;;;;;;;5094693;28;20442;-57
2021/06/12 02:56:37;;;;;;;16.03;14.43;;;;;;;;;;5094823;28;20446;-57
2021/06/12 02:59:05;;;;;;;16.80;15.10;;;;;;;;;;5094970;28;20476;-57
2021/06/12 03:01:33;;;;;;;17.03;15.20;;;;;;;;;;5094596;28;20466;-57
2021/06/12 03:04:00;;;;;;;18.53;16.53;;;;;;;;;;5094259;28;20434;-58
2021/06/12 03:06:27;;;;;;;18.40;15.87;;;;;;;;;;5094132;28;20495;-58
2021/06/12 03:08:54;;;;;;;18.50;15.33;;;;;;;;;;5094256;28;20525;-58
2021/06/12 03:11:23;;;;;;;17.57;15.80;;;;;;;;;;5094268;28;20446;-58
2021/06/12 03:13:52;;;;;;;17.70;16.00;;;;;;;;;;5093983;28;20533;-58
2021/06/12 03:16:19;;;;;;;17.10;15.30;;;;;;;;;;5094344;28;20450;-58
2021/06/12 03:18:47;;;;;;;16.30;14.67;;;;;;;;;;5095594;28;20485;-58
2021/06/12 03:21:15;;;;;;;16.37;14.73;;;;;;;;;;5094227;28;20451;-58
2021/06/12 03:23:42;;;;;;;17.87;16.07;;;;;;;;;;5094187;28;20446;-58
2021/06/12 03:26:10;;;;;;;17.87;15.97;;;;;;;;;;5094040;28;20446;-58
2021/06/12 03:28:37;;;;;;;17.10;15.40;;;;;;;;;;5093912;28;20469;-57
2021/06/12 03:31:06;;;;;;;18.57;16.60;;;;;;;;;;5094001;28;20438;-58
2021/06/12 03:33:33;;;;;;;17.70;16.00;;;;;;;;;;5093943;28;20458;-58
2021/06/12 03:36:00;;;;;;;19.53;15.60;;;;;;;;;;5093933;28;20481;-57
2021/06/12 03:38:28;;;;;;;16.77;15.07;;;;;;;;;;5093515;28;20462;-57
2021/06/12 03:40:54;;;;;;;16.17;14.57;;;;;;;;;;5093838;28;20450;-58
2021/06/12 03:43:21;;;;;;;16.87;15.13;;;;;;;;;;5093479;28;20449;-58
2021/06/12 03:45:51;;;;;;;18.10;15.50;;;;;;;;;;5093502;28;20447;-58
2021/06/12 03:48:21;;;;;;;16.30;14.60;;;;;;;;;;5094562;28;20527;-58
2021/06/12 03:50:48;;;;;;;17.57;14.50;;;;;;;;;;5093671;28;20478;-58
2021/06/12 03:53:15;;;;;;;18.30;14.40;;;;;;;;;;5093742;28;20442;-58
2021/06/12 03:55:42;;;;;;;21.03;15.50;;;;;;;;;;5094132;28;20780;-57
2021/06/12 03:58:09;;;;;;;17.73;15.73;;;;;;;;;;5074492;22;20503;-59
2021/06/12 04:00:36;;;;;;;17.20;14.13;;;;;;;;;;4971405;28;20444;-59
2021/06/12 04:03:02;;;;;;;16.30;14.63;;;;;;;;;;4971722;28;20451;-58
2021/06/12 04:08:13;;;;;;;15.27;13.73;;;;;;;;;;5137313;27;20606;-60
2021/06/12 04:10:40;;;;;;;15.10;13.50;;;;;;;;;;5090785;28;20500;-59
2021/06/12 04:13:06;;;;;;;18.10;15.33;;;;;;;;;;5090447;28;20942;-58
2021/06/12 04:15:33;;;;;;;17.23;15.30;;;;;;;;;;5105160;28;20438;-64
2021/06/12 04:18:07;;;;;;;18.17;14.50;;;;;;;;;;5103386;28;20462;-58
2021/06/12 04:20:34;;;;;;;18.67;14.70;;;;;;;;;;5090853;28;20422;-57
2021/06/12 04:23:01;;;;;;;19.30;15.07;;;;;;;;;;5090812;28;20445;-58
2021/06/12 04:25:29;;;;;;;17.93;16.03;;;;;;;;;;5090623;28;20437;-58
2021/06/12 04:27:56;;;;;;;16.43;13.23;;;;;;;;;;5090439;28;20865;-58
2021/06/12 04:30:23;;;;;;;16.03;14.20;;;;;;;;;;5090157;28;20450;-57
2021/06/12 04:32:49;;;;;;;15.87;13.50;;;;;;;;;;5091559;28;20865;-58
2021/06/12 04:35:16;;;;;;;19.50;15.63;;;;;;;;;;5090144;28;20926;-60
2021/06/12 04:37:43;;;;;;;19.00;15.37;;;;;;;;;;5090086;28;20474;-59
2021/06/12 04:40:11;;;;;;;17.43;14.63;;;;;;;;;;5090394;28;20450;-58
2021/06/12 04:42:39;;;;;;;19.93;15.67;;;;;;;;;;5089978;28;20946;-58
2021/06/12 04:45:06;;;;;;;17.80;15.50;;;;;;;;;;5090343;28;20521;-57
2021/06/12 04:47:33;;;;;;;17.33;15.20;;;;;;;;;;5090202;28;20474;-58
2021/06/12 04:50:00;;;;;;;16.47;14.70;;;;;;;;;;5090261;28;20450;-58
2021/06/12 04:52:27;;;;;;;18.83;14.87;;;;;;;;;;5090242;28;20471;-59
2021/06/12 04:54:54;;;;;;;20.40;15.67;;;;;;;;;;5090867;28;20450;-59
2021/06/12 04:57:21;;;;;;;22.63;17.60;;;;;;;;;;5090223;28;20446;-59
2021/06/12 04:59:49;;;;;;;22.43;17.00;;;;;;;;;;5090157;28;20454;-59
2021/06/12 05:02:16;;;;;;;20.80;16.40;;;;;;;;;;5089701;28;20445;-60
2021/06/12 05:04:43;;;;;;;19.20;15.13;;;;;;;;;;5089921;28;20447;-60
2021/06/12 05:07:09;;;;;;;20.87;17.47;;;;;;;;;;5089447;28;20489;-59
2021/06/12 05:09:36;;;;;;;18.03;16.07;;;;;;;;;;5089560;28;20535;-58
2021/06/12 05:12:03;;;;;;;20.50;16.23;;;;;;;;;;5089357;28;20472;-58
2021/06/12 05:14:30;;;;;;;22.90;16.53;;;;;;;;;;5089172;28;20453;-59
2021/06/12 05:17:01;;;;;;;19.80;17.30;;;;;;;;;;5089254;28;20960;-59
2021/06/12 05:19:28;;;;;;;19.50;15.50;;;;;;;;;;5076416;28;20499;-59
2021/06/12 05:21:55;;;;;;;19.60;17.27;;;;;;;;;;5075865;28;20447;-57
2021/06/12 05:24:21;;;;;;;22.17;17.50;;;;;;;;;;5075498;28;20439;-58
2021/06/12 05:26:48;;;;;;;19.27;16.40;;;;;;;;;;5075612;28;20482;-59
2021/06/12 05:29:15;;;;;;;24.27;17.30;;;;;;;;;;5075749;28;20536;-58
2021/06/12 05:31:42;;;;;;;20.73;16.63;;;;;;;;;;5075836;28;20454;-58
2021/06/12 05:34:10;;;;;;;21.70;16.90;;;;;;;;;;5075694;28;20447;-59
2021/06/12 05:36:37;;;;;;;24.00;18.07;;;;;;;;;;5075643;28;20443;-59
2021/06/12 05:39:05;;;;;;;19.93;16.73;;;;;;;;;;5075500;28;20474;-59
2021/06/12 05:41:32;;;;;;;22.93;16.30;;;;;;;;;;5076439;28;20808;-58
2021/06/12 05:43:59;;;;;;;22.27;17.20;;;;;;;;;;5075505;28;20439;-59
2021/06/12 05:46:25;;;;;;;20.30;17.00;;;;;;;;;;5075110;28;20985;-58
2021/06/12 05:48:52;;;;;;;23.57;18.33;;;;;;;;;;5075299;28;20606;-59
2021/06/12 05:51:20;;;;;;;19.97;16.80;;;;;;;;;;5075434;28;20820;-59
2021/06/12 05:53:47;;;;;;;18.97;16.07;;;;;;;;;;5075000;28;20493;-59
2021/06/12 05:56:14;;;;;;;22.10;17.87;;;;;;;;;;5075384;28;20450;-59
2021/06/12 05:58:40;;;;;;;20.93;16.73;;;;;;;;;;5075125;28;20467;-59
2021/06/12 06:01:09;;;;;;;20.80;17.67;;;;;;;;;;5075310;28;20505;-59
2021/06/12 06:03:35;;;;;;;20.20;16.17;;;;;;;;;;5075219;28;20447;-58
2021/06/12 06:06:02;;;;;;;20.63;16.10;;;;;;;;;;5074901;28;20454;-59
2021/06/12 06:08:31;;;;;;;22.90;16.80;;;;;;;;;;5074793;28;20481;-58
2021/06/12 06:10:58;;;;;;;22.40;17.50;;;;;;;;;;5074924;28;20859;-59
2021/06/12 06:13:25;;;;;;;23.67;17.63;;;;;;;;;;5074942;28;20809;-58
2021/06/12 06:15:52;;;;;;;18.93;16.90;;;;;;;;;;5074836;28;20451;-59
2021/06/12 06:18:18;;;;;;;21.90;17.70;;;;;;;;;;5074503;28;20455;-58
2021/06/12 06:20:46;;;;;;;23.43;18.90;;;;;;;;;;5074811;28;20438;-59
2021/06/12 06:23:12;;;;;;;28.30;19.23;;;;;;;;;;5074800;28;20443;-59
2021/06/12 06:25:41;;;;;;;25.37;19.20;;;;;;;;;;5074749;28;20443;-58
2021/06/12 06:28:08;;;;;;;25.93;19.13;;;;;;;;;;5086926;28;20479;-59
2021/06/12 06:30:35;;;;;;;20.47;17.87;;;;;;;;;;5095187;28;20443;-58
2021/06/12 06:33:02;;;;;;;26.47;20.53;;;;;;;;;;5078244;28;20530;-57
2021/06/12 06:35:29;;;;;;;26.63;19.17;;;;;;;;;;5074600;28;20538;-57
2021/06/12 06:37:55;;;;;;;22.53;18.63;;;;;;;;;;5074559;28;20542;-59
2021/06/12 06:40:22;;;;;;;24.27;19.30;;;;;;;;;;5074157;28;20995;-59
2021/06/12 06:42:51;;;;;;;25.17;19.03;;;;;;;;;;5074931;28;20962;-59
2021/06/12 06:45:18;;;;;;;21.00;17.07;;;;;;;;;;5074192;28;20478;-58
2021/06/12 06:47:45;;;;;;;22.23;18.50;;;;;;;;;;5073684;28;20570;-59
2021/06/12 06:50:12;;;;;;;23.37;19.37;;;;;;;;;;5073961;28;20448;-58
2021/06/12 06:52:39;;;;;;;25.50;18.70;;;;;;;;;;5074013;28;20538;-59
2021/06/12 06:55:06;;;;;;;22.70;18.87;;;;;;;;;;5073895;28;20534;-59
2021/06/12 06:57:33;;;;;;;24.83;18.20;;;;;;;;;;5074011;28;20663;-59
2021/06/12 07:00:02;;;;;;;23.70;18.30;;;;;;;;;;5074617;28;20538;-60
2021/06/12 07:02:29;;;;;;;24.53;18.60;;;;;;;;;;5073951;28;20543;-59
2021/06/12 07:04:55;;;;;;;25.30;17.77;;;;;;;;;;5073926;28;20527;-59
2021/06/12 07:07:22;;;;;;;26.23;19.30;;;;;;;;;;5073388;28;20578;-59
2021/06/12 07:09:49;;;;;;;22.10;18.40;;;;;;;;;;5074197;28;20563;-60
2021/06/12 07:12:16;;;;;;;21.57;17.83;;;;;;;;;;5073732;28;20485;-60
2021/06/12 07:14:44;;;;;;;22.20;17.50;;;;;;;;;;5074131;28;20502;-60
2021/06/12 07:17:12;;;;;;;19.43;16.00;;;;;;;;;;5073707;28;20927;-61
2021/06/12 07:19:39;;;;;;;22.10;17.23;;;;;;;;;;5073447;28;20558;-58
2021/06/12 07:22:06;;;;;;;17.50;15.33;;;;;;;;;;5073400;28;20547;-60
2021/06/12 07:24:34;;;;;;;20.63;16.10;;;;;;;;;;5073538;28;20482;-59
2021/06/12 07:27:01;;;;;;;19.60;14.90;;;;;;;;;;5073834;28;20578;-59
2021/06/12 07:29:28;;;;;;;16.27;14.47;;;;;;;;;;5073179;28;21022;-59
2021/06/12 07:31:55;;;;;;;19.00;14.43;;;;;;;;;;5073284;28;20471;-61
2021/06/12 07:34:23;;;;;;;15.60;13.97;;;;;;;;;;5073106;28;20483;-58
2021/06/12 07:36:50;;;;;;;15.80;13.07;;;;;;;;;;5073182;28;20523;-60
2021/06/12 07:39:17;;;;;;;15.03;13.03;;;;;;;;;;5072966;28;21072;-59
2021/06/12 07:41:44;;;;;;;15.53;12.10;;;;;;;;;;5073395;28;20511;-58
2021/06/12 07:44:11;;;;;;;15.57;13.50;;;;;;;;;;5073829;28;20876;-59
2021/06/12 07:46:38;;;;;;;16.70;13.77;;;;;;;;;;5073561;28;20488;-59
2021/06/12 07:49:05;;;;;;;13.83;12.30;;;;;;;;;;5073277;28;20471;-60
2021/06/12 07:51:34;;;;;;;14.60;12.23;;;;;;;;;;5072980;28;20480;-59
2021/06/12 07:54:01;;;;;;;16.10;13.40;;;;;;;;;;5073186;28;20592;-61
2021/06/12 07:56:28;;;;;;;12.37;11.07;;;;;;;;;;5073401;28;20531;-60
2021/06/12 07:58:55;;;;;;;13.73;11.80;;;;;;;;;;5072591;28;20523;-59
2021/06/12 08:01:22;;;;;;;13.33;11.93;;;;;;;;;;5072658;28;20540;-59
2021/06/12 08:03:49;;;;;;;15.07;12.07;;;;;;;;;;5073280;28;20864;-60
2021/06/12 08:06:16;;;;;;;13.70;11.17;;;;;;;;;;5072393;28;20552;-59
2021/06/12 08:08:44;;;;;;;13.40;10.73;;;;;;;;;;5072596;28;20906;-60
2021/06/12 08:11:11;;;;;;;12.70;10.77;;;;;;;;;;5073781;28;20489;-59
2021/06/12 08:13:38;;;;;;;11.87;10.67;;;;;;;;;;5073112;28;20530;-61
2021/06/12 08:16:05;;;;;;;13.63;11.43;;;;;;;;;;5072712;28;20549;-60
2021/06/12 08:18:32;;;;;;;14.90;10.80;;;;;;;;;;5072407;28;20466;-60
2021/06/12 08:20:59;;;;;;;13.00;9.80;;;;;;;;;;5072805;28;20493;-59
2021/06/12 08:23:26;;;;;;;13.20;10.90;;;;;;;;;;5072471;28;20450;-61
2021/06/12 08:25:55;;;;;;;12.20;10.47;;;;;;;;;;5072839;28;20474;-60
2021/06/12 08:28:22;;;;;;;13.77;10.20;;;;;;;;;;5072407;28;20565;-60
2021/06/12 08:30:48;;;;;;;11.67;10.47;;;;;;;;;;5072256;28;20537;-59
2021/06/12 08:33:15;;;;;;;12.60;11.30;;;;;;;;;;5072491;28;20483;-59
2021/06/12 08:35:42;;;;;;;12.33;10.50;;;;;;;;;;5072329;28;20442;-59
2021/06/12 08:38:09;;;;;;;11.60;10.30;;;;;;;;;;5072507;28;20531;-59
2021/06/12 08:40:36;;;;;;;13.53;11.73;;;;;;;;;;5072226;28;20529;-59
2021/06/12 08:43:05;;;;;;;13.87;10.90;;;;;;;;;;5072304;28;20823;-59
2021/06/12 08:45:33;;;;;;;12.60;11.30;;;;;;;;;;5072065;28;21025;-61
2021/06/12 08:48:01;;;;;;;11.83;10.63;;;;;;;;;;5072028;28;20570;-60
2021/06/12 08:50:28;;;;;;;11.27;9.43;;;;;;;;;;5072567;28;20531;-60
2021/06/12 08:52:56;;;;;;;11.23;10.17;;;;;;;;;;5072500;28;20541;-59
2021/06/12 08:55:23;;;;;;;11.23;10.13;;;;;;;;;;5076030;28;20532;-60
2021/06/12 08:57:51;;;;;;;12.13;10.87;;;;;;;;;;5076113;28;20567;-59
2021/06/12 09:00:20;;;;;;;11.40;10.20;;;;;;;;;;5076037;28;20443;-60
2021/06/12 09:03:07;;;;;;;11.10;10.00;;;;;;;;;;5076082;28;20524;-60
2021/06/12 09:05:44;;;;;;;10.60;9.60;;;;;;;;;;5075654;28;20482;-61
2021/06/12 09:08:11;;;;;;;11.10;9.30;;;;;;;;;;5075888;28;20515;-60
2021/06/12 09:10:44;;;;;;;10.63;9.50;;;;;;;;;;5075683;28;20546;-61
2021/06/12 09:13:11;;;;;;;11.33;9.83;;;;;;;;;;5075958;28;20460;-59
2021/06/12 09:15:40;;;;;;;11.73;10.23;;;;;;;;;;5075462;28;20937;-60
2021/06/12 09:18:07;;;;;;;10.10;9.10;;;;;;;;;;5075649;28;20841;-59
2021/06/12 09:20:45;;;;;;;9.97;8.90;;;;;;;;;;5075826;28;20530;-60
2021/06/12 09:23:13;;;;;;;11.73;10.67;;;;;;;;;;5075771;28;20446;-59
2021/06/12 09:25:41;;;;;;;12.50;10.07;;;;;;;;;;5076048;28;20451;-58
2021/06/12 09:28:08;;;;;;;10.77;9.77;;;;;;;;;;5075606;28;21029;-59
2021/06/12 09:30:35;;;;;;;11.37;10.27;;;;;;;;;;5075564;28;20971;-61
2021/06/12 09:33:04;;;;;;;11.20;10.20;;;;;;;;;;5075463;28;20528;-60
2021/06/12 09:35:32;;;;;;;10.33;9.33;;;;;;;;;;5075243;28;20543;-59
2021/06/12 09:37:59;;;;;;;10.47;9.47;;;;;;;;;;5074946;28;20518;-60
2021/06/12 09:40:30;;;;;;;11.27;10.10;;;;;;;;;;5075379;28;20454;-60
2021/06/12 09:42:58;;;;;;;11.77;10.60;;;;;;;;;;5075592;28;20465;-60
2021/06/12 09:45:26;;;;;;;11.20;10.07;;;;;;;;;;5075139;28;20529;-60
2021/06/12 09:48:07;;;;;;;11.57;10.37;;;;;;;;;;5075057;28;20505;-60
2021/06/12 09:50:35;;;;;;;11.87;10.77;;;;;;;;;;5074898;28;20533;-60
2021/06/12 09:53:11;;;;;;;12.40;11.13;;;;;;;;;;5074852;28;20537;-59
2021/06/12 09:55:38;;;;;;;12.60;11.27;;;;;;;;;;5074755;28;20433;-59
2021/06/12 09:58:06;;;;;;;13.10;11.70;;;;;;;;;;5074864;28;20555;-60
2021/06/12 10:00:34;;;;;;;13.40;12.20;;;;;;;;;;5113372;22;20563;-55
2021/06/12 10:03:01;;;;;;;15.50;13.90;;;;;;;;;;5095146;28;20542;-56
2021/06/12 10:05:28;;;;;;;15.40;13.77;;;;;;;;;;5095127;28;20552;-55
2021/06/12 10:07:57;;;;;;;15.90;14.30;;;;;;;;;;5094590;28;20611;-56
2021/06/12 10:10:24;;;;;;;15.40;13.90;;;;;;;;;;5080923;28;20468;-57
2021/06/12 10:12:51;;;;;;;15.10;13.80;;;;;;;;;;5074908;28;20439;-56
2021/06/12 10:15:18;;;;;;;14.00;12.70;;;;;;;;;;5074815;28;20900;-56
2021/06/12 10:17:48;;;;;;;14.67;13.20;;;;;;;;;;5074401;28;21019;-55
2021/06/12 10:20:16;;;;;;;12.83;11.57;;;;;;;;;;5074954;28;20465;-56
2021/06/12 10:22:43;;;;;;;14.77;11.60;;;;;;;;;;5074143;28;20651;-56
2021/06/12 10:25:12;;;;;;;13.50;11.80;;;;;;;;;;5075268;28;20456;-56
2021/06/12 10:27:40;;;;;;;12.17;10.97;;;;;;;;;;5074483;28;20584;-56
2021/06/12 10:30:07;;;;;;;11.87;10.67;;;;;;;;;;5074328;28;20556;-57
2021/06/12 10:32:35;;;;;;;12.87;11.60;;;;;;;;;;5074312;28;20540;-56
2021/06/12 10:35:03;;;;;;;12.50;11.20;;;;;;;;;;5074410;28;20556;-56
2021/06/12 10:37:30;;;;;;;12.10;10.90;;;;;;;;;;5074024;28;20446;-56
2021/06/12 10:40:04;;;;;;;11.73;10.67;;;;;;;;;;5073884;28;20561;-56
2021/06/12 10:42:32;;;;;;;11.17;10.07;;;;;;;;;;5074283;28;20513;-56
2021/06/12 10:45:00;;;;;;;11.47;8.60;;;;;;;;;;5074217;28;20493;-56
2021/06/12 10:47:39;;;;;;;6.83;6.23;;;;;;;;;;5073698;28;20481;-57
2021/06/12 10:50:21;;;;;;;6.27;5.67;;;;;;;;;;5074304;28;20494;-57
2021/06/12 10:52:48;;;;;;;9.47;5.50;;;;;;;;;;5057643;28;20886;-57
2021/06/12 10:55:30;;;;;;;5.23;4.33;;;;;;;;;;5074034;28;20541;-54
2021/06/12 10:57:58;;;;;;;6.63;4.47;;;;;;;;;;5073470;28;20436;-55
2021/06/12 11:00:25;;;;;;;4.40;4.00;;;;;;;;;;5073664;28;20478;-55
2021/06/12 11:02:55;;;;;;;5.60;4.77;;;;;;;;;;5073460;28;20445;-56
2021/06/12 11:05:27;;;;;;;6.40;5.20;;;;;;;;;;5073925;28;20469;-55
2021/06/12 11:08:14;;;;;;;6.57;5.30;;;;;;;;;;5073614;28;20535;-55
2021/06/12 11:10:41;;;;;;;6.10;5.37;;;;;;;;;;5073286;28;20482;-55
2021/06/12 11:13:21;;;;;;;7.07;5.17;;;;;;;;;;5073360;28;20500;-56
2021/06/12 11:15:47;;;;;;;9.30;4.47;;;;;;;;;;5072790;28;20897;-55
2021/06/12 11:18:16;;;;;;;4.87;4.37;;;;;;;;;;5073279;28;20475;-55
2021/06/12 11:20:45;;;;;;;5.60;4.17;;;;;;;;;;5073178;28;20503;-56
2021/06/12 11:23:14;;;;;;;3.57;3.27;;;;;;;;;;5073856;28;20475;-57
2021/06/12 11:25:42;;;;;;;8.10;3.60;;;;;;;;;;5073517;28;20524;-55
2021/06/12 11:28:22;;;;;;;4.77;2.87;;;;;;;;;;5073123;28;20482;-55
2021/06/12 11:30:49;;;;;;;4.93;3.63;;;;;;;;;;5073249;28;20512;-56
2021/06/12 11:33:17;;;;;;;11.60;4.63;;;;;;;;;;5073201;28;20769;-55
2021/06/12 11:35:45;;;;;;;4.53;4.13;;;;;;;;;;5073464;28;20454;-55
2021/06/12 11:38:12;;;;;;;3.83;3.47;;;;;;;;;;5072668;28;20439;-54
2021/06/12 11:40:40;;;;;;;4.90;3.90;;;;;;;;;;5072844;28;20468;-56
2021/06/12 11:43:07;;;;;;;4.13;3.67;;;;;;;;;;5072833;28;20447;-56
2021/06/12 11:45:36;;;;;;;4.97;4.37;;;;;;;;;;5073069;28;20444;-55
2021/06/12 11:48:18;;;;;;;8.33;3.60;;;;;;;;;;5072748;28;20474;-55
2021/06/12 11:50:44;;;;;;;6.07;4.07;;;;;;;;;;5069780;28;20471;-56
2021/06/12 11:53:15;;;;;;;4.53;3.60;;;;;;;;;;5072690;28;20446;-57
2021/06/12 11:55:42;;;;;;;7.90;4.40;;;;;;;;;;5072811;28;20496;-55
2021/06/12 11:58:09;;;;;;;4.57;4.03;;;;;;;;;;5073028;28;20431;-55
2021/06/12 12:00:38;;;;;;;8.57;4.23;;;;;;;;;;5072684;28;20470;-56
2021/06/12 12:03:06;;;;;;;6.60;4.03;;;;;;;;;;5072714;28;20892;-55
2021/06/12 12:05:33;;;;;;;5.07;3.60;;;;;;;;;;5072855;28;20488;-54
2021/06/12 12:08:01;;;;;;;4.20;3.53;;;;;;;;;;5072801;28;20478;-53
2021/06/12 12:10:28;;;;;;;5.27;3.20;;;;;;;;;;5072448;28;20474;-54
2021/06/12 12:12:55;;;;;;;7.27;4.87;;;;;;;;;;5073019;28;20451;-54
2021/06/12 12:15:34;;;;;;;5.53;3.30;;;;;;;;;;5073027;28;20455;-53
2021/06/12 12:18:06;;;;;;;6.90;3.80;;;;;;;;;;5072786;28;21024;-53
2021/06/12 12:20:37;;;;;;;4.33;3.77;;;;;;;;;;5072894;28;20470;-54
2021/06/12 12:23:04;;;;;;;7.33;3.83;;;;;;;;;;5072602;28;20522;-54
2021/06/12 12:25:33;;;;;;;7.43;3.70;;;;;;;;;;5073182;28;20443;-55
2021/06/12 12:28:06;;;;;;;5.77;3.20;;;;;;;;;;5073494;28;20483;-54
2021/06/12 12:30:33;;;;;;;5.87;4.20;;;;;;;;;;5076924;28;20505;-54
2021/06/12 12:33:08;;;;;;;4.70;2.90;;;;;;;;;;5076611;28;20818;-54
2021/06/12 12:35:34;;;;;;;4.67;3.00;;;;;;;;;;5076124;28;20454;-55
2021/06/12 12:38:15;;;;;;;5.77;2.90;;;;;;;;;;5076527;28;20439;-55
2021/06/12 12:40:41;;;;;;;3.60;3.30;;;;;;;;;;5076104;28;21029;-55
2021/06/12 12:43:08;;;;;;;3.90;3.50;;;;;;;;;;5076482;28;20447;-54
2021/06/12 12:45:36;;;;;;;5.17;3.27;;;;;;;;;;5076349;28;20956;-53
2021/06/12 12:48:03;;;;;;;5.20;3.43;;;;;;;;;;5077606;28;20475;-55
2021/06/12 12:50:31;;;;;;;6.47;2.80;;;;;;;;;;5076612;28;20512;-51
2021/06/12 12:53:05;;;;;;;3.57;2.77;;;;;;;;;;5076487;28;20451;-55
2021/06/12 12:55:32;;;;;;;4.03;3.00;;;;;;;;;;5076139;28;20930;-53
2021/06/12 12:58:00;;;;;;;4.80;2.47;;;;;;;;;;5076565;28;20946;-54
2021/06/12 13:00:29;;;;;;;5.40;2.70;;;;;;;;;;5075718;28;20483;-55
2021/06/12 13:02:56;;;;;;;6.00;2.70;;;;;;;;;;5076147;28;20489;-59
2021/06/12 13:05:23;;;;;;;5.67;2.50;;;;;;;;;;5075929;28;20944;-57
2021/06/12 13:08:01;;;;;;;4.97;2.93;;;;;;;;;;5075758;28;20504;-54
2021/06/12 13:10:30;;;;;;;7.13;3.20;;;;;;;;;;5075772;28;20851;-55
2021/06/12 13:12:58;;;;;;;7.40;3.43;;;;;;;;;;5075742;28;20821;-53
2021/06/12 13:15:25;;;;;;;5.60;2.83;;;;;;;;;;5076070;28;20454;-53
2021/06/12 13:17:52;;;;;;;2.83;2.30;;;;;;;;;;5076205;28;20485;-56
2021/06/12 13:20:22;;;;;;;4.23;3.13;;;;;;;;;;5075580;28;20992;-55
2021/06/12 13:22:49;;;;;;;6.23;2.87;;;;;;;;;;5075497;28;20865;-55
2021/06/12 13:25:18;;;;;;;3.40;2.73;;;;;;;;;;5075383;28;20823;-55
2021/06/12 13:27:47;;;;;;;3.80;2.73;;;;;;;;;;5075352;28;20518;-55
2021/06/12 13:30:33;;;;;;;6.80;2.90;;;;;;;;;;5075570;28;20565;-56
2021/06/12 13:33:01;;;;;;;4.83;2.90;;;;;;;;;;5074371;28;20499;-55
2021/06/12 13:35:28;;;;;;;8.70;2.53;;;;;;;;;;5075477;28;20457;-55
2021/06/12 13:38:02;;;;;;;4.83;2.60;;;;;;;;;;5075445;28;20443;-54
2021/06/12 13:40:30;;;;;;;6.00;3.00;;;;;;;;;;5075313;28;20572;-54
2021/06/12 13:42:57;;;;;;;4.83;2.60;;;;;;;;;;5075105;28;20458;-54
2021/06/12 13:45:23;;;;;;;3.13;2.57;;;;;;;;;;5075173;28;20458;-55
2021/06/12 13:47:50;;;;;;;2.23;1.63;;;;;;;;;;5075189;28;20485;-54
2021/06/12 13:50:17;;;;;;;3.43;1.87;;;;;;;;;;5075479;28;20471;-54
2021/06/12 13:52:44;;;;;;;4.97;2.33;;;;;;;;;;5075350;28;20818;-55
2021/06/12 13:55:13;;;;;;;3.57;2.10;;;;;;;;;;5075167;28;20442;-53
2021/06/12 13:57:42;;;;;;;5.90;3.10;;;;;;;;;;5075171;28;20465;-56
2021/06/12 14:00:09;;;;;;;3.83;1.93;;;;;;;;;;5074410;28;20610;-57
2021/06/12 14:02:36;;;;;;;3.50;2.30;;;;;;;;;;5074874;28;20954;-56
2021/06/12 14:05:03;;;;;;;3.77;2.10;;;;;;;;;;5075112;28;20454;-57
2021/06/12 14:07:30;;;;;;;2.73;1.67;;;;;;;;;;5074687;28;20483;-54
2021/06/12 14:09:57;;;;;;;3.00;2.40;;;;;;;;;;5074899;28;20469;-56
2021/06/12 14:12:24;;;;;;;4.37;2.10;;;;;;;;;;5074969;28;20455;-56
2021/06/12 14:14:52;;;;;;;4.27;2.10;;;;;;;;;;5074863;28;20876;-56
2021/06/12 14:17:19;;;;;;;6.77;1.70;;;;;;;;;;5074623;28;20974;-55
2021/06/12 14:19:46;;;;;;;3.07;1.80;;;;;;;;;;5074388;28;20470;-56
2021/06/12 14:22:13;;;;;;;2.77;1.73;;;;;;;;;;5074456;28;20446;-56
2021/06/12 14:24:41;;;;;;;1.93;1.20;;;;;;;;;;5074203;28;20494;-54
2021/06/12 14:27:09;;;;;;;2.72;1.40;;;;;;;;;;5074162;28;20468;-56
2021/06/12 14:29:35;;;;;;;2.27;1.40;;;;;;;;;;5074608;28;20700;-55
2021/06/12 14:32:04;;;;;;;2.67;1.53;;;;;;;;;;5074415;28;20504;-55
2021/06/12 14:34:31;;;;;;;3.90;1.33;;;;;;;;;;5074130;28;20450;-56